Time;durP1;ratioP1;P1;durP2;ratioP2;P2;SDS_P1;SDS_P2;PMS_P1;PMS_P2;Temp;Humidity;BMP_temperature;BMP_pressure;BME280_temperature;BME280_humidity;BME280_pressure;Samples;Min_cycle;Max_cycle;Signal;HPM_P1;HPM_P2
2022/01/10 00:00:30;;;;;;;23.25;14.45;;;;;;;6.89;44.10;99622.61;1948250;97;25964;-82
2022/01/10 00:04:09;;;;;;;26.55;16.20;;;;;;;6.90;44.11;99632.55;2006690;96;25936;-80
2022/01/10 00:07:42;;;;;;;;;;;;;;;;;;;;;
2022/01/10 00:15:10;;;;;;;27.45;15.50;;;;;;;6.85;44.18;99635.91;1962218;98;26047;-80
2022/01/10 00:18:57;;;;;;;26.33;15.55;;;;;;;6.84;44.16;99638.02;1968302;96;25828;-81
2022/01/10 00:22:26;;;;;;;29.18;15.90;;;;;;;6.80;44.19;99640.08;2079071;93;26202;-80
2022/01/10 00:26:34;;;;;;;27.42;16.60;;;;;;;6.78;44.17;99643.06;2164394;89;25810;-80
2022/01/10 00:30:29;;;;;;;27.48;17.12;;;;;;;6.76;44.20;99644.72;2206278;89;25891;-80
2022/01/10 00:34:10;;;;;;;29.00;17.07;;;;;;;6.73;44.20;99646.36;2199259;88;25865;-81
2022/01/10 00:38:13;;;;;;;;;;;;;;;6.70;44.22;99656.20;2204501;88;25861;-81
2022/01/10 00:41:56;;;;;;;25.82;17.75;;;;;;;6.67;44.24;99664.31;2063253;94;25862;-81
2022/01/10 00:45:23;;;;;;;30.52;18.80;;;;;;;6.63;44.25;99668.53;2064759;94;26069;-81
2022/01/10 00:48:49;;;;;;;29.55;18.62;;;;;;;6.60;44.29;99680.97;2066224;93;26530;-82
2022/01/10 00:52:21;;;;;;;35.15;20.62;;;;;;;6.56;44.30;99686.91;2074084;94;25905;-81
2022/01/10 00:55:59;;;;;;;33.98;20.23;;;;;;;6.57;44.32;99686.05;2070552;94;25979;-81
2022/01/10 00:59:45;;;;;;;33.10;20.02;;;;;;;6.56;44.33;99698.55;2035283;94;25813;-82
2022/01/10 01:03:11;;;;;;;40.88;21.65;;;;;;;6.55;44.36;99699.82;2034387;94;25799;-83
2022/01/10 01:06:51;;;;;;;35.50;20.85;;;;;;;6.54;44.40;99698.91;2034743;95;26846;-81
2022/01/10 01:18:42;;;;;;;38.53;22.17;;;;;;;6.56;44.41;99728.76;2060333;92;25902;-82
2022/01/10 01:27:32;;;;;;;;;;;;;;;;;;;;;
2022/01/10 01:31:25;;;;;;;37.78;21.20;;;;;;;6.55;44.44;99760.68;2027497;95;25873;-82
2022/01/10 01:35:06;;;;;;;39.70;22.60;;;;;;;6.55;44.46;99763.27;2011543;95;26068;-81
2022/01/10 01:38:48;;;;;;;41.98;22.15;;;;;;;6.55;44.46;99761.97;2000773;97;25839;-82
2022/01/10 01:42:39;;;;;;;39.13;23.20;;;;;;;6.57;44.47;99768.05;1975415;96;25955;-81
2022/01/10 01:55:25;;;;;;;39.85;23.22;;;;;;;6.58;44.47;99768.51;1915993;98;25837;-81
2022/01/10 01:58:59;;;;;;;39.15;24.10;;;;;;;6.58;44.48;99768.51;1914239;100;25978;-80
2022/01/10 02:02:41;;;;;;;34.23;21.05;;;;;;;6.57;44.52;99772.81;1911215;100;25989;-82
2022/01/10 02:06:07;;;;;;;36.38;21.27;;;;;;;6.58;44.53;99777.19;1908148;100;25754;-81
2022/01/10 02:09:45;;;;;;;37.65;21.90;;;;;;;6.58;44.55;99778.48;1850600;101;26402;-81
2022/01/10 02:13:11;;;;;;;35.85;20.95;;;;;;;6.59;44.55;99784.11;1843055;105;25809;-83
2022/01/10 02:17:13;;;;;;;34.23;21.12;;;;;;;6.58;44.57;99787.54;1869854;103;26480;-80
2022/01/10 02:21:03;;;;;;;40.12;20.60;;;;;;;6.60;44.57;99787.15;1859770;104;25900;-83
2022/01/10 02:24:28;;;;;;;35.30;21.05;;;;;;;6.59;44.59;99786.70;1886701;98;26111;-81
2022/01/10 02:28:10;;;;;;;32.10;20.12;;;;;;;6.58;44.60;99794.02;1910103;100;25907;-82
2022/01/10 02:36:34;;;;;;;35.10;21.02;;;;;;;6.60;44.63;99805.70;1851771;105;25910;-80
2022/01/10 02:44:11;;;;;;;35.70;20.88;;;;;;;6.61;44.67;99821.70;1975958;97;25743;-81
2022/01/10 02:47:50;;;;;;;33.67;19.65;;;;;;;6.61;44.68;99825.58;1931013;96;25823;-81
2022/01/10 02:51:34;;;;;;;31.82;20.43;;;;;;;6.62;44.70;99828.66;1980042;97;25942;-83
2022/01/10 02:55:01;;;;;;;30.12;18.82;;;;;;;6.61;44.72;99830.38;1987975;96;26097;-85
2022/01/10 02:58:41;;;;;;;34.20;19.62;;;;;;;6.63;44.72;99844.23;1913073;100;26557;-80
2022/01/10 03:02:33;;;;;;;29.48;18.45;;;;;;;6.63;44.74;99849.41;1964752;97;25916;-81
2022/01/10 03:06:54;;;;;;;29.15;18.32;;;;;;;6.65;44.76;99848.56;1976393;98;26086;-80
2022/01/10 03:14:23;;;;;;;30.73;19.00;;;;;;;6.64;44.80;99860.64;1935111;100;25986;-78
2022/01/10 03:18:07;;;;;;;28.98;17.55;;;;;;;6.65;44.84;99868.90;1898986;102;25982;-80
2022/01/10 03:21:55;;;;;;;29.60;17.15;;;;;;;6.66;44.83;99878.42;1834663;103;25914;-80
2022/01/10 03:25:31;;;;;;;24.72;17.20;;;;;;;6.67;44.84;99885.34;1809100;108;25976;-80
2022/01/10 03:29:11;;;;;;;29.95;18.10;;;;;;;6.69;44.88;99899.66;1811229;108;26556;-81
2022/01/10 03:37:10;;;;;;;25.40;17.10;;;;;;;6.70;44.90;99906.16;1883958;103;25789;-80
2022/01/10 03:41:10;;;;;;;28.62;18.17;;;;;;;6.69;44.92;99912.19;1883633;102;26235;-81
2022/01/10 03:44:13;;;;;;;23.20;15.75;;;;;;;6.69;44.95;99917.37;2044984;94;25684;-82
2022/01/10 03:47:44;;;;;;;27.85;17.27;;;;;;;6.70;44.96;99928.19;2061459;94;25745;-81
2022/01/10 03:55:16;;;;;;;24.32;16.00;;;;;;;6.71;44.98;99937.70;2169291;89;25860;-82
2022/01/10 04:02:56;;;;;;;22.77;15.90;;;;;;;6.72;45.02;99936.90;2191199;87;25802;-81
2022/01/10 04:06:31;;;;;;;21.30;14.40;;;;;;;6.74;45.03;99939.52;2169415;88;25547;-83
2022/01/10 04:11:02;;;;;;;26.35;15.30;;;;;;;6.74;45.03;99951.17;2241022;86;25867;-80
2022/01/10 04:18:51;;;;;;;19.62;14.07;;;;;;;6.75;45.05;99958.11;2077008;93;25756;-79
2022/01/10 04:22:39;;;;;;;19.50;13.95;;;;;;;6.75;45.05;99965.49;2080333;94;25716;-80
2022/01/10 04:26:12;;;;;;;20.63;14.80;;;;;;;6.76;45.06;99972.84;1965568;98;25556;-80
2022/01/10 04:29:57;;;;;;;;;;;;;;;;;;;;;
2022/01/10 04:33:27;;;;;;;18.82;13.13;;;;;;;6.77;45.09;99977.19;1940351;100;26124;-80
2022/01/10 04:36:49;;;;;;;15.75;12.90;;;;;;;6.77;45.11;99981.95;1938810;100;25921;-80
2022/01/10 04:40:19;;;;;;;20.80;13.95;;;;;;;6.77;45.11;99993.60;1943476;99;25771;-80
2022/01/10 04:47:21;;;;;;;;;;;;;;;6.78;45.13;99997.07;1981998;97;26077;-80
2022/01/10 04:55:10;;;;;;;18.30;14.07;;;;;;;6.75;45.16;100006.95;2118972;92;25805;-80
2022/01/10 04:58:45;;;;;;;18.60;12.75;;;;;;;6.76;45.14;100023.36;2120383;91;25956;-81
2022/01/10 05:02:34;;;;;;;15.90;12.70;;;;;;;6.76;45.18;100022.07;2120641;90;25832;-81
2022/01/10 05:06:05;;;;;;;15.50;12.03;;;;;;;6.75;45.20;100025.47;2048658;94;25854;-81
2022/01/10 05:09:33;;;;;;;17.80;13.20;;;;;;;6.75;45.24;100025.47;2033913;95;25646;-80
2022/01/10 05:13:52;;;;;;;14.68;12.18;;;;;;;6.76;45.22;100031.14;2058525;94;25760;-80
2022/01/10 05:17:15;;;;;;;16.45;11.48;;;;;;;6.75;45.25;100032.85;2006846;96;25895;-80
2022/01/10 05:20:41;;;;;;;18.73;12.53;;;;;;;6.75;45.26;100037.13;1998382;96;25813;-80
2022/01/10 05:24:32;;;;;;;18.48;13.75;;;;;;;6.75;45.26;100041.92;2001305;96;25956;-80
2022/01/10 05:32:42;;;;;;;15.78;11.80;;;;;;;6.74;45.30;100064.75;2064488;94;25853;-79
2022/01/10 05:36:35;;;;;;;19.98;12.80;;;;;;;6.72;45.32;100081.97;2056797;94;25824;-78
2022/01/10 05:40:13;;;;;;;17.27;12.82;;;;;;;6.74;45.34;100088.48;2069466;95;25920;-79
2022/01/10 05:43:55;;;;;;;15.20;11.35;;;;;;;6.74;45.34;100091.07;2067019;94;25708;-79
2022/01/10 05:47:52;;;;;;;20.15;13.72;;;;;;;6.74;45.35;100100.14;2084234;93;25983;-80
2022/01/10 05:51:16;;;;;;;15.90;12.47;;;;;;;6.73;45.36;100095.38;2142119;90;25689;-79
2022/01/10 05:54:41;;;;;;;18.70;12.03;;;;;;;6.73;45.39;100094.08;2223574;86;25506;-79
2022/01/10 05:58:27;;;;;;;16.45;12.30;;;;;;;6.73;45.39;100103.14;2257546;86;25586;-79
2022/01/10 06:01:56;;;;;;;21.30;13.43;;;;;;;6.76;46.55;100109.73;2261859;86;25266;-80
2022/01/10 06:05:30;;;;;;;16.70;12.20;;;;;;;6.80;46.30;100111.59;2248627;86;25732;-79
2022/01/10 06:09:07;;;;;;;19.35;14.10;;;;;;;6.78;46.51;100114.95;2256721;85;25906;-80
2022/01/10 06:12:43;;;;;;;21.80;14.05;;;;;;;6.79;46.53;100118.03;2274694;86;25699;-79
2022/01/10 06:16:19;;;;;;;20.72;14.10;;;;;;;6.79;46.50;100138.34;2276142;85;25767;-79
2022/01/10 06:20:10;;;;;;;23.77;14.95;;;;;;;6.79;46.51;100128.40;2271950;86;26129;-78
2022/01/10 06:23:37;;;;;;;20.20;14.18;;;;;;;6.79;46.46;100143.52;2239878;86;25888;-80
2022/01/10 06:27:17;;;;;;;23.73;15.30;;;;;;;6.79;46.43;100151.30;2247163;84;25751;-78
2022/01/10 06:30:38;;;;;;;;;;;;;;;6.78;46.42;100157.70;2252598;86;26239;-79
2022/01/10 06:34:21;;;;;;;24.07;14.63;;;;;;;6.78;46.37;100172.86;2246076;86;25733;-82
2022/01/10 06:41:58;;;;;;;21.52;14.47;;;;;;;6.76;46.34;100193.94;2188232;87;25769;-80
2022/01/10 06:45:34;;;;;;;;;;;;;;;;;;;;;
2022/01/10 06:53:03;;;;;;;24.05;16.85;;;;;;;6.77;46.26;100220.30;2180892;87;25791;-80
2022/01/10 06:57:03;;;;;;;;;;;;;;;;;;;;;
2022/01/10 07:01:17;;;;;;;;;;;;;;;;;;;;;
2022/01/10 07:05:07;;;;;;;29.35;16.97;;;;;;;6.79;46.23;100241.10;2140422;91;25772;-81
2022/01/10 07:08:54;;;;;;;26.33;17.75;;;;;;;6.78;46.21;100244.11;2140422;90;25902;-80
2022/01/10 07:12:44;;;;;;;27.67;18.07;;;;;;;6.79;46.18;100251.05;2123689;90;25831;-83
2022/01/10 07:16:25;;;;;;;28.98;18.15;;;;;;;6.80;46.17;100256.69;2098647;90;26554;-77
2022/01/10 07:20:12;;;;;;;29.27;18.60;;;;;;;6.81;46.13;100274.41;2179141;89;25662;-79
2022/01/10 07:28:09;;;;;;;30.70;18.48;;;;;;;6.83;46.13;100274.06;2306274;83;25800;-79
2022/01/10 07:32:05;;;;;;;32.35;19.02;;;;;;;6.84;46.12;100284.89;2340963;82;25704;-79
2022/01/10 07:36:04;;;;;;;31.70;18.90;;;;;;;6.84;46.11;100286.19;2345090;83;25783;-79
2022/01/10 07:39:51;;;;;;;30.17;18.45;;;;;;;6.85;46.10;100298.30;2292421;85;25853;-79
2022/01/10 07:43:25;;;;;;;33.20;19.32;;;;;;;6.85;46.10;100304.78;2155404;89;25781;-79
2022/01/10 07:47:19;;;;;;;31.20;20.37;;;;;;;6.85;46.10;100303.48;2179688;87;25842;-79
2022/01/10 07:51:29;;;;;;;;;;;;;;;;;;;;;
2022/01/10 08:03:30;;;;;;;;;;;;;;;;;;;;;
2022/01/10 08:07:19;;;;;;;33.08;19.80;;;;;;;6.90;46.10;100340.84;1892598;102;25743;-80
2022/01/10 08:11:08;;;;;;;38.27;21.43;;;;;;;6.92;46.10;100344.77;1840198;104;25997;-80
2022/01/10 08:15:31;;;;;;;;;;;;;;;;;;;;;
2022/01/10 08:27:14;;;;;;;32.25;19.87;;;;;;;6.95;46.08;100390.24;1738775;108;26396;-81
2022/01/10 08:31:09;;;;;;;30.32;18.70;;;;;;;6.94;46.10;100388.48;1808530;105;26147;-80
2022/01/10 08:35:34;;;;;;;30.32;19.10;;;;;;;6.95;46.08;100402.81;1795683;108;25875;-83
2022/01/10 08:39:26;;;;;;;34.67;20.15;;;;;;;6.95;46.10;100395.42;1787370;107;26098;-80
2022/01/10 08:43:09;;;;;;;34.25;20.12;;;;;;;6.96;46.08;100412.77;1725887;112;26726;-80
2022/01/10 08:47:30;;;;;;;35.80;20.80;;;;;;;6.96;46.07;100421.42;1761767;109;26921;-80
2022/01/10 08:51:29;;;;;;;34.23;20.85;;;;;;;6.97;46.04;100419.70;1747090;110;26176;-81
2022/01/10 08:55:39;;;;;;;31.45;19.80;;;;;;;7.00;46.06;100426.30;1745001;109;26103;-80
2022/01/10 08:59:56;;;;;;;30.17;19.07;;;;;;;7.01;46.03;100434.13;1725501;110;25827;-81
2022/01/10 09:04:19;;;;;;;;;;;;;;;;;;;;;
2022/01/10 09:09:00;;;;;;;;;;;;;;;;;;;;;
2022/01/10 09:13:23;;;;;;;24.60;15.63;;;;;;;7.17;45.99;100446.40;1849144;104;25919;-84
2022/01/10 09:17:30;;;;;;;27.80;16.77;;;;;;;7.33;50.96;100443.56;1873142;102;26294;-82
2022/01/10 09:20:30;;;;;;;26.40;16.50;;;;;;;7.82;50.60;100457.02;1858764;102;25836;-82
2022/01/10 09:24:51;;;;;;;;;;;;;;;;;;;;;
2022/01/10 09:32:49;;;;;;;24.07;16.00;;;;;;;8.05;50.21;100473.00;1935178;98;26710;-83
2022/01/10 09:36:28;;;;;;;30.70;15.98;;;;;;;8.22;49.98;100473.58;1939104;97;26036;-83
2022/01/10 09:39:51;;;;;;;23.98;15.65;;;;;;;8.43;49.65;100469.55;1951085;98;25892;-83
2022/01/10 09:43:36;;;;;;;22.37;15.53;;;;;;;8.71;49.24;100473.09;1926340;99;25913;-83
2022/01/10 09:47:08;;;;;;;27.52;16.55;;;;;;;9.11;48.70;100471.34;1888762;99;25579;-82
2022/01/10 09:50:33;;;;;;;22.82;15.93;;;;;;;9.54;48.12;100478.23;1929388;97;26476;-86
2022/01/10 09:54:12;;;;;;;29.32;18.48;;;;;;;10.04;47.47;100487.90;1992906;97;25814;-82
2022/01/10 09:58:22;;;;;;;;;;;;;;;;;;;;;
2022/01/10 10:06:42;;;;;;;26.23;15.63;;;;;;;11.61;45.40;100486.06;1947577;99;26242;-83
2022/01/10 10:23:14;;;;;;;;;;;;;;;;;;;;;
2022/01/10 10:27:24;;;;;;;;;;;;;;;;;;;;;
2022/01/10 10:44:54;;;;;;;;;;;;;;;;;;;;;
2022/01/10 11:02:21;;;;;;;22.93;14.75;;;;;;;15.76;39.04;100555.84;1742785;109;26461;-84
2022/01/10 11:06:35;;;;;;;19.67;13.32;;;;;;;15.27;37.38;100566.02;1726423;112;26347;-84
2022/01/10 11:10:13;;;;;;;17.00;12.50;;;;;;;14.44;36.34;100575.72;1747344;110;25997;-85
2022/01/10 11:14:16;;;;;;;;;;;;;;;;;;;;;
2022/01/10 11:17:58;;;;;;;;;;;;;;;;;;;;;
2022/01/10 11:22:12;;;;;;;;;;;;;;;;;;;;;
2022/01/10 11:26:26;;;;;;;26.00;16.12;;;;;;;12.22;35.54;100584.92;1755980;110;25969;-86
2022/01/10 11:43:04;;;;;;;22.50;12.05;;;;;;;13.43;34.86;100581.86;1726334;110;26154;-84
2022/01/10 11:55:25;;;;;;;14.30;9.18;;;;;;;14.84;33.44;100630.84;1749070;109;25812;-83
2022/01/10 11:59:58;;;;;;;;;;;;;;;;;;;;;
2022/01/10 12:03:31;;;;;;;12.03;8.73;;;;;;;15.59;32.60;100641.13;1770477;108;26526;-83
2022/01/10 12:12:32;;;;;;;;;;;;;;;;;;;;;
2022/01/10 12:16:34;;;;;;;12.35;7.85;;;;;;;16.63;31.14;100649.59;1790299;107;26049;-83
2022/01/10 12:20:08;;;;;;;12.43;8.70;;;;;;;16.81;30.82;100651.45;1876284;99;26080;-82
2022/01/10 12:24:24;;;;;;;10.32;8.15;;;;;;;17.02;30.51;100664.22;1983413;94;25770;-82
2022/01/10 12:32:27;;;;;;;;;;;;;;;;;;;;;
2022/01/10 12:45:36;;;;;;;13.55;7.83;;;;;;;16.29;29.96;100691.55;1795297;107;25881;-84
2022/01/10 12:49:36;;;;;;;;;;;;;;;;;;;;;
2022/01/10 12:57:58;;;;;;;8.50;6.97;;;;;;;14.95;30.59;100704.48;1682840;117;26042;-82
2022/01/10 13:06:42;;;;;;;;;;;;;;;;;;;;;
2022/01/10 13:15:41;;;;;;;;;;;;;;;;;;;;;
2022/01/10 13:23:46;;;;;;;9.70;8.10;;;;;;;12.79;32.48;100754.76;1754487;110;25981;-84
2022/01/10 13:27:46;;;;;;;;;;;;;;;;;;;;;
2022/01/10 13:31:38;;;;;;;11.65;7.67;;;;;;;12.32;32.91;100778.15;1810576;106;26285;-82
2022/01/10 13:48:13;;;;;;;;;;;;;;;;;;;;;
2022/01/10 13:52:43;;;;;;;;;;;;;;;;;;;;;
2022/01/10 13:57:40;;;;;;;;;;;;;;;;;;;;;
2022/01/10 14:02:24;;;;;;;8.28;7.58;;;;;;;11.41;34.46;100814.17;1710094;111;26492;-82
2022/01/10 14:06:36;;;;;;;9.08;7.83;;;;;;;11.32;34.67;100830.45;1709675;112;25921;-83
2022/01/10 14:10:37;;;;;;;;;;;;;;;;;;;;;
2022/01/10 14:18:52;;;;;;;9.38;8.28;;;;;;;10.90;35.28;100846.17;1758985;109;25789;-82
2022/01/10 14:23:19;;;;;;;9.38;8.33;;;;;;;10.74;35.50;100849.64;1783670;108;25973;-83
2022/01/10 14:27:14;;;;;;;10.72;8.40;;;;;;;10.58;35.69;100855.22;1765740;109;25990;-83
2022/01/10 14:31:02;;;;;;;12.93;8.08;;;;;;;10.40;35.92;100861.63;1797277;106;25902;-84
2022/01/10 14:39:38;;;;;;;16.23;10.13;;;;;;;10.14;36.33;100878.09;1858671;103;26363;-85
2022/01/10 14:48:07;;;;;;;;;;;;;;;;;;;;;
2022/01/10 14:52:13;;;;;;;14.93;10.68;;;;;;;9.69;37.00;100906.95;1825680;105;25864;-83
2022/01/10 14:56:00;;;;;;;16.20;11.12;;;;;;;9.57;37.19;100919.52;1799531;105;25838;-82
2022/01/10 15:00:09;;;;;;;;;;;;;;;;;;;;;
2022/01/10 15:04:42;;;;;;;;;;;;;;;;;;;;;
2022/01/10 15:25:46;;;;;;;15.95;12.13;;;;;;;8.84;38.33;100963.12;1747384;108;25952;-83
2022/01/10 15:29:40;;;;;;;15.10;11.33;;;;;;;8.72;38.48;100966.13;1752989;111;25737;-83
2022/01/10 15:33:18;;;;;;;14.50;11.25;;;;;;;8.64;38.54;100974.02;1761743;110;26042;-84
2022/01/10 15:37:08;;;;;;;16.95;12.78;;;;;;;8.51;38.58;100981.33;1774324;110;25880;-85
2022/01/10 15:40:48;;;;;;;16.05;12.68;;;;;;;8.39;38.66;100988.59;1793372;106;26534;-84
2022/01/10 15:44:25;;;;;;;16.48;12.33;;;;;;;8.28;38.71;100993.31;1833297;105;25973;-83
2022/01/10 15:48:11;;;;;;;19.52;13.22;;;;;;;8.19;38.78;101001.12;1829458;103;25962;-83
2022/01/10 15:52:04;;;;;;;19.85;13.40;;;;;;;8.10;38.88;101012.40;1888000;102;25869;-84
2022/01/10 15:59:57;;;;;;;;;;;;;;;;;;;;;
2022/01/10 16:03:42;;;;;;;19.67;13.08;;;;;;;7.84;39.20;101029.45;1855687;104;26413;-84
2022/01/10 16:07:11;;;;;;;19.77;12.25;;;;;;;7.77;39.27;101040.84;1868911;103;25899;-84
2022/01/10 16:10:52;;;;;;;18.25;13.00;;;;;;;7.71;39.30;101050.05;1871271;103;26344;-84
2022/01/10 16:14:34;;;;;;;19.02;12.33;;;;;;;7.65;39.32;101056.26;1825512;104;26098;-84
2022/01/10 16:18:30;;;;;;;20.80;13.15;;;;;;;7.60;39.36;101067.73;1809009;106;26205;-83
2022/01/10 16:22:02;;;;;;;21.87;14.25;;;;;;;7.52;39.43;101069.95;1879928;102;25854;-83
2022/01/10 16:25:33;;;;;;;23.10;14.10;;;;;;;7.47;39.48;101071.88;1879364;102;26547;-83
2022/01/10 16:29:36;;;;;;;;;;;;;;;;;;;;;
2022/01/10 16:33:13;;;;;;;22.45;14.23;;;;;;;7.36;39.60;101088.23;1809314;107;26182;-85
2022/01/10 16:37:05;;;;;;;18.12;13.72;;;;;;;7.31;39.70;101094.89;1748220;110;26024;-83
2022/01/10 16:40:50;;;;;;;18.32;13.48;;;;;;;7.22;39.78;101099.23;1760408;109;26600;-85
2022/01/10 16:53:58;;;;;;;;;;;;;;;;;;;;;
2022/01/10 17:10:11;;;;;;;20.83;15.00;;;;;;;7.35;40.04;101143.50;2371648;83;28967;-84
2022/01/10 17:13:34;;;;;;;23.85;15.50;;;;;;;7.23;39.97;101149.41;2331211;84;25464;-84
2022/01/10 17:16:59;;;;;;;22.90;15.85;;;;;;;7.07;40.05;101163.30;2333632;84;25717;-85
2022/01/10 17:20:23;;;;;;;23.67;16.07;;;;;;;6.92;40.21;101162.51;2332809;84;25671;-83
2022/01/10 17:23:44;;;;;;;23.90;15.50;;;;;;;6.79;40.32;101166.20;2337573;84;25656;-85
2022/01/10 17:27:13;;;;;;;23.38;16.20;;;;;;;6.68;40.44;101168.63;2338217;84;26060;-87
2022/01/10 17:30:43;;;;;;;25.17;15.55;;;;;;;6.58;40.51;101173.35;2322912;83;26332;-86
2022/01/10 17:34:05;;;;;;;26.30;16.10;;;;;;;6.58;40.63;101175.03;2336501;84;25750;-85
2022/01/10 17:37:26;;;;;;;28.47;16.15;;;;;;;6.63;40.72;101181.36;2253670;86;25622;-86
2022/01/10 17:40:49;;;;;;;24.00;15.63;;;;;;;6.68;40.78;101186.36;2271342;86;25919;-85
2022/01/10 17:44:12;;;;;;;20.75;14.00;;;;;;;6.72;40.86;101185.73;2245937;87;25769;-87
2022/01/10 17:47:47;;;;;;;23.62;14.73;;;;;;;6.74;40.92;101189.27;2272472;86;25599;-85
2022/01/10 17:51:13;;;;;;;20.15;13.93;;;;;;;6.75;40.97;101195.34;2270956;86;25687;-86
2022/01/10 17:54:37;;;;;;;20.48;14.63;;;;;;;6.79;41.02;101202.48;2273738;86;25700;-85
2022/01/10 17:58:09;;;;;;;21.97;14.03;;;;;;;6.82;41.08;101204.83;2267829;85;25765;-85
2022/01/10 18:05:46;;;;;;;20.68;14.28;;;;;;;6.83;41.16;101209.19;2108212;91;25881;-89
2022/01/10 18:09:19;;;;;;;20.37;13.58;;;;;;;6.83;41.12;101218.27;2120175;92;26260;-91
2022/01/10 18:13:20;;;;;;;21.93;14.10;;;;;;;6.85;41.26;101222.22;2058536;94;25824;-86
2022/01/10 18:17:21;;;;;;;23.20;14.50;;;;;;;6.83;41.34;101227.34;2057743;92;25854;-86
2022/01/10 18:20:44;;;;;;;20.17;13.30;;;;;;;6.84;41.38;101229.11;2059742;95;26470;-87
2022/01/10 18:24:16;;;;;;;20.82;13.43;;;;;;;6.84;41.44;101238.18;2061417;95;26382;-86
2022/01/10 18:27:55;;;;;;;22.80;13.93;;;;;;;6.84;41.51;101238.18;2053512;95;26313;-88
2022/01/10 18:31:16;;;;;;;19.07;13.60;;;;;;;6.83;41.53;101242.89;2038858;95;25854;-80
2022/01/10 18:34:37;;;;;;;20.72;14.87;;;;;;;6.82;41.56;101250.19;2057930;95;26446;-83
2022/01/10 18:38:00;;;;;;;24.67;15.05;;;;;;;6.82;41.61;101259.27;2049307;95;25865;-82
2022/01/10 18:41:22;;;;;;;18.48;13.72;;;;;;;6.82;41.67;101267.45;2061435;94;25825;-85
2022/01/10 18:44:45;;;;;;;22.00;14.45;;;;;;;6.81;41.73;101265.23;2102903;94;25839;-83
2022/01/10 18:48:08;;;;;;;21.48;14.47;;;;;;;6.80;41.77;101270.34;2104109;89;25796;-88
2022/01/10 18:51:30;;;;;;;20.15;14.15;;;;;;;6.79;41.82;101272.05;2184299;89;25913;-85
2022/01/10 18:54:52;;;;;;;20.15;14.33;;;;;;;6.79;41.84;101280.24;2206072;89;26127;-83
2022/01/10 18:58:19;;;;;;;24.82;14.78;;;;;;;6.77;41.90;101284.03;2205252;89;25689;-85
2022/01/10 19:01:41;;;;;;;23.52;15.18;;;;;;;6.77;41.94;101289.62;2215760;88;25707;-84
2022/01/10 19:05:02;;;;;;;24.35;15.05;;;;;;;6.76;41.97;101295.63;2241225;88;26372;-81
2022/01/10 19:08:28;;;;;;;26.10;15.18;;;;;;;6.75;42.00;101299.92;2237157;88;25835;-86
2022/01/10 19:11:50;;;;;;;24.20;14.53;;;;;;;6.74;42.05;101306.30;2237021;88;25786;-82
2022/01/10 19:15:11;;;;;;;19.82;14.10;;;;;;;6.72;42.11;101299.75;2236927;88;25662;-82
2022/01/10 19:18:37;;;;;;;23.20;15.70;;;;;;;6.72;42.13;101315.30;2237409;88;25708;-83
2022/01/10 19:21:58;;;;;;;22.67;15.20;;;;;;;6.71;42.16;101310.02;2237609;88;25718;-83
2022/01/10 19:25:22;;;;;;;22.67;15.68;;;;;;;6.70;42.20;101318.20;2237082;88;25713;-80
2022/01/10 19:28:43;;;;;;;27.02;15.55;;;;;;;6.68;42.23;101321.10;2237555;88;25685;-84
2022/01/10 19:32:06;;;;;;;24.50;15.95;;;;;;;6.69;42.27;101326.80;2237174;88;25789;-83
2022/01/10 19:35:27;;;;;;;19.35;14.87;;;;;;;6.67;42.31;101324.52;2211075;88;25703;-83
2022/01/10 19:38:49;;;;;;;23.10;15.28;;;;;;;6.66;42.34;101328.33;2233923;88;26666;-89
2022/01/10 19:42:10;;;;;;;24.77;16.20;;;;;;;6.64;42.38;101330.82;2167610;91;25736;-83
2022/01/10 19:45:32;;;;;;;23.70;14.33;;;;;;;6.63;42.42;101341.59;2167400;91;25775;-81
2022/01/10 19:48:54;;;;;;;23.25;16.02;;;;;;;6.63;42.44;101343.30;2167448;91;25770;-82
2022/01/10 19:52:15;;;;;;;27.05;16.07;;;;;;;6.61;42.51;101353.59;2167682;91;25571;-82
2022/01/10 19:55:37;;;;;;;22.45;14.80;;;;;;;6.68;43.13;101357.79;2170882;89;25666;-84
2022/01/10 19:58:58;;;;;;;27.30;16.17;;;;;;;6.70;43.57;101358.78;2202003;89;25728;-86
2022/01/10 20:02:20;;;;;;;28.32;16.17;;;;;;;6.70;43.66;101364.84;2220763;88;25216;-83
2022/01/10 20:05:41;;;;;;;24.90;15.95;;;;;;;6.69;43.66;101366.96;2237621;88;25688;-82
2022/01/10 20:09:03;;;;;;;22.37;14.43;;;;;;;6.67;43.63;101370.27;2237523;88;25798;-82
2022/01/10 20:12:25;;;;;;;24.75;15.70;;;;;;;6.65;43.62;101368.91;2237618;88;25858;-82
2022/01/10 20:15:48;;;;;;;22.45;15.35;;;;;;;6.63;43.59;101374.39;2236890;88;25819;-87
2022/01/10 20:19:11;;;;;;;26.27;16.15;;;;;;;6.62;43.56;101385.16;2237305;88;25682;-82
2022/01/10 20:22:38;;;;;;;27.85;16.10;;;;;;;6.60;43.57;101389.77;2237674;88;25748;-83
2022/01/10 20:25:59;;;;;;;25.43;16.02;;;;;;;6.59;43.56;101390.58;2237622;88;25757;-80
2022/01/10 20:29:21;;;;;;;24.18;15.23;;;;;;;6.56;43.55;101388.70;2237677;88;25857;-81
2022/01/10 20:32:53;;;;;;;24.45;16.15;;;;;;;6.55;43.57;101402.89;2237561;88;25676;-85
2022/01/10 20:36:16;;;;;;;27.62;16.40;;;;;;;6.54;43.57;101403.67;2238477;88;25634;-80
2022/01/10 20:53:23;;;;;;;21.97;12.93;;;;;;;7.86;50.20;101425.00;2502933;78;30923;-87
2022/01/10 20:56:44;;;;;;;23.95;13.98;;;;;;;7.75;49.92;101433.13;2423050;80;25708;-83
2022/01/10 21:00:10;;;;;;;23.80;15.03;;;;;;;7.62;49.73;101435.01;2351124;82;25797;-83
2022/01/10 21:03:32;;;;;;;22.15;14.50;;;;;;;7.49;49.50;101443.84;2296486;83;25294;-82
2022/01/10 21:06:53;;;;;;;26.07;15.75;;;;;;;7.39;49.33;101450.66;2299095;83;25670;-87
2022/01/10 21:10:19;;;;;;;24.67;15.28;;;;;;;7.28;49.21;101458.75;2358829;83;26327;-84
2022/01/10 21:13:43;;;;;;;25.68;15.98;;;;;;;7.20;49.08;101456.57;2358814;83;25673;-85
2022/01/10 21:17:19;;;;;;;;;;;;;;;;;;;;;
2022/01/10 21:21:06;;;;;;;26.07;16.62;;;;;;;7.05;48.86;101472.16;2344377;83;25626;-90
2022/01/10 21:24:30;;;;;;;25.88;17.25;;;;;;;6.95;48.76;101472.09;2356175;81;35187;-84
2022/01/10 21:28:06;;;;;;;26.20;17.20;;;;;;;6.87;48.67;101464.27;2357257;82;25786;-88
2022/01/10 21:31:31;;;;;;;25.68;17.20;;;;;;;6.82;48.60;101478.28;2356202;82;25777;-87
2022/01/10 21:34:52;;;;;;;32.83;18.32;;;;;;;6.75;48.50;101477.83;2345870;83;25615;-87
2022/01/10 21:38:15;;;;;;;29.42;18.00;;;;;;;6.70;48.42;101484.06;2381046;82;25617;-84
2022/01/10 21:41:41;;;;;;;30.95;18.30;;;;;;;6.65;48.39;101482.92;2366348;82;25576;-86
2022/01/10 21:45:06;;;;;;;35.15;20.57;;;;;;;6.60;48.34;101488.23;2360497;82;25745;-83
2022/01/10 21:48:27;;;;;;;31.77;18.67;;;;;;;6.56;48.29;101493.64;2375822;82;25738;-84
2022/01/10 21:51:48;;;;;;;31.25;19.73;;;;;;;6.52;48.24;101499.45;2364450;82;25667;-87
2022/01/10 21:55:12;;;;;;;34.20;20.02;;;;;;;6.48;48.15;101501.76;2360170;82;25715;-84
2022/01/10 21:58:33;;;;;;;39.85;21.60;;;;;;;6.44;48.09;101497.21;2313163;84;25722;-84
2022/01/10 22:01:55;;;;;;;37.48;21.82;;;;;;;6.42;48.03;101501.43;2339010;81;25662;-86
2022/01/10 22:05:19;;;;;;;35.30;20.60;;;;;;;6.37;47.98;101500.73;2351153;81;25792;-84
2022/01/10 22:08:41;;;;;;;34.45;22.27;;;;;;;6.34;47.90;101500.55;2346897;82;25562;-81
2022/01/10 22:12:03;;;;;;;38.88;22.90;;;;;;;6.30;47.80;101506.36;2353221;82;25391;-82
2022/01/10 22:15:27;;;;;;;34.85;20.60;;;;;;;6.29;47.75;101511.47;2344505;83;25811;-85
2022/01/10 22:18:48;;;;;;;36.80;21.85;;;;;;;6.26;47.66;101505.70;2340631;83;25633;-85
2022/01/10 22:22:12;;;;;;;36.10;21.37;;;;;;;6.23;47.58;101504.22;2350748;82;25653;-83
2022/01/10 22:25:35;;;;;;;41.73;22.85;;;;;;;6.22;47.53;101511.91;2337181;82;25851;-84
2022/01/10 22:29:00;;;;;;;33.85;21.17;;;;;;;6.20;47.45;101510.91;2345995;83;26276;-83
2022/01/10 22:32:24;;;;;;;34.80;21.10;;;;;;;6.18;47.38;101515.13;2348843;82;25656;-86
2022/01/10 22:35:48;;;;;;;32.40;21.50;;;;;;;6.15;47.32;101515.83;2358441;82;25725;-86
2022/01/10 22:39:14;;;;;;;35.23;21.68;;;;;;;6.13;47.25;101523.89;2335144;83;25732;-87
2022/01/10 22:42:35;;;;;;;37.78;21.52;;;;;;;6.10;47.20;101520.72;2352259;83;25910;-82
2022/01/10 22:49:25;;;;;;;37.00;21.62;;;;;;;6.06;47.08;101527.81;2270392;85;25758;-84
2022/01/10 22:52:46;;;;;;;39.00;21.75;;;;;;;6.03;47.03;101532.80;2284611;85;25848;-86
2022/01/10 22:56:09;;;;;;;35.78;20.48;;;;;;;6.01;46.99;101542.20;2271035;85;26051;-86
2022/01/10 22:59:35;;;;;;;35.00;19.95;;;;;;;6.00;46.92;101544.27;2255717;85;26482;-86